sensor_id;sensor_type;location;lat;lon;timestamp;pressure;altitude;pressure_sealevel;temperature;humidity
28167;BME280;15455;53.376;-6.262;2023-08-20T00:01:22;101154.78;;;15.06;100.00
28167;BME280;15455;53.376;-6.262;2023-08-20T00:04:09;101152.16;;;15.04;100.00
28167;BME280;15455;53.376;-6.262;2023-08-20T00:06:55;101145.22;;;14.99;100.00
28167;BME280;15455;53.376;-6.262;2023-08-20T00:09:41;101154.06;;;14.93;100.00
28167;BME280;15455;53.376;-6.262;2023-08-20T00:12:26;101161.19;;;14.85;100.00
28167;BME280;15455;53.376;-6.262;2023-08-20T00:15:12;101170.94;;;14.76;100.00
28167;BME280;15455;53.376;-6.262;2023-08-20T00:17:58;101170.16;;;14.70;100.00
28167;BME280;15455;53.376;-6.262;2023-08-20T00:20:44;101174.63;;;14.63;100.00
28167;BME280;15455;53.376;-6.262;2023-08-20T00:23:31;101187.78;;;14.57;100.00
28167;BME280;15455;53.376;-6.262;2023-08-20T00:26:17;101186.94;;;14.55;100.00
28167;BME280;15455;53.376;-6.262;2023-08-20T00:29:02;101201.81;;;14.57;100.00
28167;BME280;15455;53.376;-6.262;2023-08-20T00:31:48;101192.19;;;14.55;100.00
28167;BME280;15455;53.376;-6.262;2023-08-20T00:34:34;101196.59;;;14.51;100.00
28167;BME280;15455;53.376;-6.262;2023-08-20T00:37:20;101204.53;;;14.48;100.00
28167;BME280;15455;53.376;-6.262;2023-08-20T00:40:06;101211.53;;;14.48;100.00
28167;BME280;15455;53.376;-6.262;2023-08-20T00:42:53;101201.06;;;14.45;100.00
28167;BME280;15455;53.376;-6.262;2023-08-20T00:45:43;101199.38;;;14.40;100.00
28167;BME280;15455;53.376;-6.262;2023-08-20T00:48:29;101202.03;;;14.36;100.00
28167;BME280;15455;53.376;-6.262;2023-08-20T00:51:15;101206.47;;;14.29;100.00
28167;BME280;15455;53.376;-6.262;2023-08-20T00:54:02;101207.47;;;14.19;100.00
28167;BME280;15455;53.376;-6.262;2023-08-20T00:56:49;101207.56;;;14.11;100.00
28167;BME280;15455;53.376;-6.262;2023-08-20T00:59:36;101207.63;;;14.02;100.00
28167;BME280;15455;53.376;-6.262;2023-08-20T01:02:22;101213.78;;;13.96;100.00
28167;BME280;15455;53.376;-6.262;2023-08-20T01:05:10;101220.88;;;13.89;100.00
28167;BME280;15455;53.376;-6.262;2023-08-20T01:14:15;101231.50;;;13.72;100.00
28167;BME280;15455;53.376;-6.262;2023-08-20T01:17:02;101235.03;;;13.65;100.00
28167;BME280;15455;53.376;-6.262;2023-08-20T01:19:47;101240.28;;;13.65;100.00
28167;BME280;15455;53.376;-6.262;2023-08-20T01:25:44;101242.91;;;13.65;100.00
28167;BME280;15455;53.376;-6.262;2023-08-20T01:28:31;101245.56;;;13.64;100.00
28167;BME280;15455;53.376;-6.262;2023-08-20T01:31:18;101238.59;;;13.57;100.00
28167;BME280;15455;53.376;-6.262;2023-08-20T01:34:04;101244.75;;;13.51;100.00
28167;BME280;15455;53.376;-6.262;2023-08-20T01:36:50;101249.13;;;13.53;100.00
28167;BME280;15455;53.376;-6.262;2023-08-20T01:39:36;101251.63;;;13.67;100.00
28167;BME280;15455;53.376;-6.262;2023-08-20T01:42:22;101253.31;;;13.75;100.00
28167;BME280;15455;53.376;-6.262;2023-08-20T01:45:08;101264.66;;;13.83;100.00
28167;BME280;15455;53.376;-6.262;2023-08-20T01:47:53;101267.22;;;13.87;100.00
28167;BME280;15455;53.376;-6.262;2023-08-20T01:50:39;101257.59;;;13.91;100.00
28167;BME280;15455;53.376;-6.262;2023-08-20T01:53:25;101256.69;;;13.92;100.00
28167;BME280;15455;53.376;-6.262;2023-08-20T01:56:12;101257.56;;;13.93;100.00
28167;BME280;15455;53.376;-6.262;2023-08-20T01:58:58;101256.66;;;13.97;100.00
28167;BME280;15455;53.376;-6.262;2023-08-20T02:01:44;101268.91;;;13.95;100.00
28167;BME280;15455;53.376;-6.262;2023-08-20T02:04:29;101268.97;;;13.88;100.00
28167;BME280;15455;53.376;-6.262;2023-08-20T02:07:15;101269.00;;;13.81;100.00
28167;BME280;15455;53.376;-6.262;2023-08-20T02:10:00;101273.34;;;13.88;100.00
28167;BME280;15455;53.376;-6.262;2023-08-20T02:12:46;101283.84;;;13.91;100.00
28167;BME280;15455;53.376;-6.262;2023-08-20T02:15:34;101283.88;;;13.82;100.00
28167;BME280;15455;53.376;-6.262;2023-08-20T02:18:19;101282.22;;;13.71;100.00
28167;BME280;15455;53.376;-6.262;2023-08-20T02:21:05;101275.31;;;13.58;100.00
28167;BME280;15455;53.376;-6.262;2023-08-20T02:23:50;101275.34;;;13.53;100.00
28167;BME280;15455;53.376;-6.262;2023-08-20T02:26:36;101281.44;;;13.54;100.00
28167;BME280;15455;53.376;-6.262;2023-08-20T02:29:21;101283.22;;;13.47;100.00
28167;BME280;15455;53.376;-6.262;2023-08-20T02:32:06;101281.50;;;13.43;100.00
28167;BME280;15455;53.376;-6.262;2023-08-20T02:34:52;101286.78;;;13.31;100.00
28167;BME280;15455;53.376;-6.262;2023-08-20T02:37:38;101297.31;;;13.21;100.00
28167;BME280;15455;53.376;-6.262;2023-08-20T02:40:29;101299.94;;;13.20;100.00
28167;BME280;15455;53.376;-6.262;2023-08-20T02:43:14;101312.16;;;13.23;100.00
28167;BME280;15455;53.376;-6.262;2023-08-20T02:46:00;101312.13;;;13.29;100.00
28167;BME280;15455;53.376;-6.262;2023-08-20T02:48:45;101314.75;;;13.32;100.00
28167;BME280;15455;53.376;-6.262;2023-08-20T02:51:31;101311.25;;;13.30;100.00
28167;BME280;15455;53.376;-6.262;2023-08-20T02:54:17;101312.16;;;13.36;100.00
28167;BME280;15455;53.376;-6.262;2023-08-20T02:57:02;101317.31;;;13.46;100.00
28167;BME280;15455;53.376;-6.262;2023-08-20T02:59:48;101311.19;;;13.51;100.00
28167;BME280;15455;53.376;-6.262;2023-08-20T03:02:33;101322.53;;;13.55;100.00
28167;BME280;15455;53.376;-6.262;2023-08-20T03:05:19;101312.94;;;13.52;100.00
28167;BME280;15455;53.376;-6.262;2023-08-20T03:08:05;101316.44;;;13.51;100.00
28167;BME280;15455;53.376;-6.262;2023-08-20T03:10:50;101323.44;;;13.49;100.00
28167;BME280;15455;53.376;-6.262;2023-08-20T03:13:36;101323.47;;;13.46;100.00
28167;BME280;15455;53.376;-6.262;2023-08-20T03:16:21;101330.41;;;13.49;100.00
28167;BME280;15455;53.376;-6.262;2023-08-20T03:19:07;101332.16;;;13.51;100.00
28167;BME280;15455;53.376;-6.262;2023-08-20T03:21:53;101326.03;;;13.55;100.00
28167;BME280;15455;53.376;-6.262;2023-08-20T03:24:38;101333.03;;;13.57;100.00
28167;BME280;15455;53.376;-6.262;2023-08-20T03:27:24;101324.28;;;13.53;100.00
28167;BME280;15455;53.376;-6.262;2023-08-20T03:30:09;101323.44;;;13.49;100.00
28167;BME280;15455;53.376;-6.262;2023-08-20T03:32:55;101327.78;;;13.50;100.00
28167;BME280;15455;53.376;-6.262;2023-08-20T03:35:41;101326.94;;;13.48;100.00
28167;BME280;15455;53.376;-6.262;2023-08-20T03:38:27;101324.38;;;13.41;100.00
28167;BME280;15455;53.376;-6.262;2023-08-20T03:41:12;101319.13;;;13.34;100.00
28167;BME280;15455;53.376;-6.262;2023-08-20T03:43:58;101324.38;;;13.30;100.00
28167;BME280;15455;53.376;-6.262;2023-08-20T03:46:43;101321.75;;;13.28;100.00
28167;BME280;15455;53.376;-6.262;2023-08-20T03:49:30;101323.50;;;13.28;100.00
28167;BME280;15455;53.376;-6.262;2023-08-20T03:52:15;101319.16;;;13.25;100.00
28167;BME280;15455;53.376;-6.262;2023-08-20T03:55:02;101332.25;;;13.27;100.00
28167;BME280;15455;53.376;-6.262;2023-08-20T03:57:48;101333.97;;;13.34;100.00
28167;BME280;15455;53.376;-6.262;2023-08-20T04:00:34;101336.59;;;13.37;100.00
28167;BME280;15455;53.376;-6.262;2023-08-20T04:03:21;101339.19;;;13.43;100.00
28167;BME280;15455;53.376;-6.262;2023-08-20T04:06:07;101335.69;;;13.47;100.00
28167;BME280;15455;53.376;-6.262;2023-08-20T04:08:54;101338.28;;;13.47;100.00
28167;BME280;15455;53.376;-6.262;2023-08-20T04:11:40;101333.94;;;13.46;100.00
28167;BME280;15455;53.376;-6.262;2023-08-20T04:14:27;101348.78;;;13.47;100.00
28167;BME280;15455;53.376;-6.262;2023-08-20T04:17:13;101353.09;;;13.58;100.00
28167;BME280;15455;53.376;-6.262;2023-08-20T04:19:58;101346.09;;;13.61;100.00
28167;BME280;15455;53.376;-6.262;2023-08-20T04:22:45;101355.66;;;13.70;100.00
28167;BME280;15455;53.376;-6.262;2023-08-20T04:25:31;101352.16;;;13.76;100.00
28167;BME280;15455;53.376;-6.262;2023-08-20T04:28:17;101356.47;;;13.83;100.00
28167;BME280;15455;53.376;-6.262;2023-08-20T04:31:02;101358.19;;;13.87;100.00
28167;BME280;15455;53.376;-6.262;2023-08-20T04:34:02;101345.03;;;13.93;100.00
28167;BME280;15455;53.376;-6.262;2023-08-20T04:37:09;101356.41;;;13.97;100.00
28167;BME280;15455;53.376;-6.262;2023-08-20T04:39:54;101346.72;;;14.03;100.00
28167;BME280;15455;53.376;-6.262;2023-08-20T04:42:41;101351.94;;;14.06;100.00
28167;BME280;15455;53.376;-6.262;2023-08-20T04:45:26;101344.91;;;14.12;100.00
28167;BME280;15455;53.376;-6.262;2023-08-20T04:48:12;101346.63;;;14.17;100.00
28167;BME280;15455;53.376;-6.262;2023-08-20T04:50:58;101347.44;;;14.22;100.00
28167;BME280;15455;53.376;-6.262;2023-08-20T04:53:45;101350.94;;;14.24;100.00
28167;BME280;15455;53.376;-6.262;2023-08-20T04:56:32;101349.16;;;14.25;100.00
28167;BME280;15455;53.376;-6.262;2023-08-20T04:59:18;101352.66;;;14.24;100.00
28167;BME280;15455;53.376;-6.262;2023-08-20T05:02:09;101356.22;;;14.20;100.00
28167;BME280;15455;53.376;-6.262;2023-08-20T05:04:59;101348.34;;;14.17;100.00
28167;BME280;15455;53.376;-6.262;2023-08-20T05:07:44;101347.53;;;14.10;100.00
28167;BME280;15455;53.376;-6.262;2023-08-20T05:10:31;101350.19;;;14.07;100.00
28167;BME280;15455;53.376;-6.262;2023-08-20T05:13:17;101349.34;;;14.03;100.00
28167;BME280;15455;53.376;-6.262;2023-08-20T05:16:03;101353.78;;;13.97;100.00
28167;BME280;15455;53.376;-6.262;2023-08-20T05:18:48;101352.06;;;13.89;100.00
28167;BME280;15455;53.376;-6.262;2023-08-20T05:21:34;101353.00;;;13.82;100.00
28167;BME280;15455;53.376;-6.262;2023-08-20T05:24:19;101351.25;;;13.80;100.00
28167;BME280;15455;53.376;-6.262;2023-08-20T05:27:13;101357.34;;;13.82;100.00
28167;BME280;15455;53.376;-6.262;2023-08-20T05:30:06;101370.44;;;13.86;100.00
28167;BME280;15455;53.376;-6.262;2023-08-20T05:32:54;101379.16;;;13.90;100.00
28167;BME280;15455;53.376;-6.262;2023-08-20T05:35:40;101383.53;;;13.91;100.00
28167;BME280;15455;53.376;-6.262;2023-08-20T05:38:26;101380.03;;;13.90;100.00
28167;BME280;15455;53.376;-6.262;2023-08-20T05:41:12;101393.13;;;13.92;100.00
28167;BME280;15455;53.376;-6.262;2023-08-20T05:43:58;101385.25;;;13.92;100.00
28167;BME280;15455;53.376;-6.262;2023-08-20T05:46:44;101390.50;;;13.98;100.00
28167;BME280;15455;53.376;-6.262;2023-08-20T05:49:31;101395.69;;;14.07;100.00
28167;BME280;15455;53.376;-6.262;2023-08-20T05:52:16;101396.53;;;14.11;100.00
28167;BME280;15455;53.376;-6.262;2023-08-20T05:55:02;101391.28;;;14.14;100.00
28167;BME280;15455;53.376;-6.262;2023-08-20T05:57:48;101399.13;;;14.16;100.00
28167;BME280;15455;53.376;-6.262;2023-08-20T06:00:33;101392.06;;;14.21;100.00
28167;BME280;15455;53.376;-6.262;2023-08-20T06:03:19;101397.28;;;14.25;100.00
28167;BME280;15455;53.376;-6.262;2023-08-20T06:06:04;101394.63;;;14.33;100.00
28167;BME280;15455;53.376;-6.262;2023-08-20T06:08:53;101405.91;;;14.45;100.00
28167;BME280;15455;53.376;-6.262;2023-08-20T06:11:53;101406.69;;;14.54;100.00
28167;BME280;15455;53.376;-6.262;2023-08-20T06:14:38;101404.88;;;14.66;100.00
28167;BME280;15455;53.376;-6.262;2023-08-20T06:17:24;101402.19;;;14.76;100.00
28167;BME280;15455;53.376;-6.262;2023-08-20T06:20:10;101402.09;;;14.84;100.00
28167;BME280;15455;53.376;-6.262;2023-08-20T06:22:56;101399.41;;;14.90;100.00
28167;BME280;15455;53.376;-6.262;2023-08-20T06:25:42;101402.00;;;14.95;100.00
28167;BME280;15455;53.376;-6.262;2023-08-20T06:28:27;101395.81;;;15.01;100.00
28167;BME280;15455;53.376;-6.262;2023-08-20T06:31:13;101393.09;;;15.07;100.00
28167;BME280;15455;53.376;-6.262;2023-08-20T06:33:58;101396.53;;;15.14;100.00
28167;BME280;15455;53.376;-6.262;2023-08-20T06:36:44;101395.63;;;15.16;100.00
28167;BME280;15455;53.376;-6.262;2023-08-20T06:39:30;101406.09;;;15.21;100.00
28167;BME280;15455;53.376;-6.262;2023-08-20T06:42:15;101401.63;;;15.27;100.00
28167;BME280;15455;53.376;-6.262;2023-08-20T06:45:01;101402.44;;;15.34;100.00
28167;BME280;15455;53.376;-6.262;2023-08-20T06:47:46;101412.84;;;15.43;100.00
28167;BME280;15455;53.376;-6.262;2023-08-20T06:50:32;101401.31;;;15.54;100.00
28167;BME280;15455;53.376;-6.262;2023-08-20T06:53:18;101405.56;;;15.64;100.00
28167;BME280;15455;53.376;-6.262;2023-08-20T06:56:03;101407.19;;;15.76;100.00
28167;BME280;15455;53.376;-6.262;2023-08-20T06:58:50;101403.56;;;15.86;100.00
28167;BME280;15455;53.376;-6.262;2023-08-20T07:01:36;101407.75;;;16.01;100.00
28167;BME280;15455;53.376;-6.262;2023-08-20T07:04:21;101403.03;;;16.22;100.00
28167;BME280;15455;53.376;-6.262;2023-08-20T07:07:07;101399.28;;;16.38;100.00
28167;BME280;15455;53.376;-6.262;2023-08-20T07:09:53;101399.91;;;16.54;100.00
28167;BME280;15455;53.376;-6.262;2023-08-20T07:12:38;101384.84;;;16.61;100.00
28167;BME280;15455;53.376;-6.262;2023-08-20T07:15:24;101380.41;;;16.64;100.00
28167;BME280;15455;53.376;-6.262;2023-08-20T07:18:09;101375.16;;;16.63;100.00
28167;BME280;15455;53.376;-6.262;2023-08-20T07:20:58;101375.22;;;16.60;100.00
28167;BME280;15455;53.376;-6.262;2023-08-20T07:23:43;101378.78;;;16.56;100.00
28167;BME280;15455;53.376;-6.262;2023-08-20T07:26:29;101384.16;;;16.51;100.00
28167;BME280;15455;53.376;-6.262;2023-08-20T07:29:15;101388.53;;;16.50;100.00
28167;BME280;15455;53.376;-6.262;2023-08-20T07:32:01;101385.03;;;16.50;100.00
28167;BME280;15455;53.376;-6.262;2023-08-20T07:34:48;101392.00;;;16.54;100.00
28167;BME280;15455;53.376;-6.262;2023-08-20T07:37:34;101392.78;;;16.59;100.00
28167;BME280;15455;53.376;-6.262;2023-08-20T07:40:20;101397.84;;;16.72;100.00
28167;BME280;15455;53.376;-6.262;2023-08-20T07:43:06;101394.97;;;16.84;100.00
28167;BME280;15455;53.376;-6.262;2023-08-20T07:45:51;101397.44;;;16.96;100.00
28167;BME280;15455;53.376;-6.262;2023-08-20T07:48:37;101385.97;;;16.99;100.00
28167;BME280;15455;53.376;-6.262;2023-08-20T07:51:22;101394.66;;;17.02;100.00
28167;BME280;15455;53.376;-6.262;2023-08-20T07:54:08;101397.31;;;17.02;100.00
28167;BME280;15455;53.376;-6.262;2023-08-20T07:56:54;101397.22;;;17.07;100.00
28167;BME280;15455;53.376;-6.262;2023-08-20T07:59:40;101398.03;;;17.11;100.00
28167;BME280;15455;53.376;-6.262;2023-08-20T08:02:25;101392.69;;;17.14;100.00
28167;BME280;15455;53.376;-6.262;2023-08-20T08:05:11;101400.53;;;17.17;100.00
28167;BME280;15455;53.376;-6.262;2023-08-20T08:07:58;101392.56;;;17.20;100.00
28167;BME280;15455;53.376;-6.262;2023-08-20T08:10:44;101398.56;;;17.28;100.00
28167;BME280;15455;53.376;-6.262;2023-08-20T08:13:30;101399.38;;;17.33;100.00
28167;BME280;15455;53.376;-6.262;2023-08-20T08:16:15;101398.41;;;17.38;100.00
28167;BME280;15455;53.376;-6.262;2023-08-20T08:19:02;101402.69;;;17.42;100.00
28167;BME280;15455;53.376;-6.262;2023-08-20T08:21:48;101404.44;;;17.43;100.00
28167;BME280;15455;53.376;-6.262;2023-08-20T08:24:33;101400.88;;;17.45;100.00
28167;BME280;15455;53.376;-6.262;2023-08-20T08:27:19;101393.00;;;17.44;100.00
28167;BME280;15455;53.376;-6.262;2023-08-20T08:30:05;101388.53;;;17.46;100.00
28167;BME280;15455;53.376;-6.262;2023-08-20T08:32:51;101405.97;;;17.53;100.00
28167;BME280;15455;53.376;-6.262;2023-08-20T08:35:36;101399.59;;;17.63;100.00
28167;BME280;15455;53.376;-6.262;2023-08-20T08:38:22;101404.59;;;17.77;100.00
28167;BME280;15455;53.376;-6.262;2023-08-20T08:41:12;101412.25;;;17.88;100.00
28167;BME280;15455;53.376;-6.262;2023-08-20T08:43:58;101401.69;;;17.90;100.00
28167;BME280;15455;53.376;-6.262;2023-08-20T08:46:43;101407.75;;;17.95;100.00
28167;BME280;15455;53.376;-6.262;2023-08-20T08:49:32;101406.91;;;17.94;100.00
28167;BME280;15455;53.376;-6.262;2023-08-20T08:52:18;101415.56;;;17.99;100.00
28167;BME280;15455;53.376;-6.262;2023-08-20T08:55:05;101410.03;;;18.12;100.00
28167;BME280;15455;53.376;-6.262;2023-08-20T08:57:53;101403.63;;;18.22;100.00
28167;BME280;15455;53.376;-6.262;2023-08-20T09:00:39;101409.50;;;18.33;100.00
28167;BME280;15455;53.376;-6.262;2023-08-20T09:03:25;101405.72;;;18.44;100.00
28167;BME280;15455;53.376;-6.262;2023-08-20T09:06:12;101396.50;;;18.60;100.00
28167;BME280;15455;53.376;-6.262;2023-08-20T09:09:04;101397.09;;;18.71;100.00
28167;BME280;15455;53.376;-6.262;2023-08-20T09:11:51;101399.50;;;18.81;100.00
28167;BME280;15455;53.376;-6.262;2023-08-20T09:14:37;101396.06;;;18.77;100.00
28167;BME280;15455;53.376;-6.262;2023-08-20T09:17:25;101401.22;;;18.82;100.00
28167;BME280;15455;53.376;-6.262;2023-08-20T09:20:11;101398.88;;;18.71;100.00
28167;BME280;15455;53.376;-6.262;2023-08-20T09:22:57;101395.53;;;18.64;100.00
28167;BME280;15455;53.376;-6.262;2023-08-20T09:25:43;101396.41;;;18.63;100.00
28167;BME280;15455;53.376;-6.262;2023-08-20T09:28:30;101396.63;;;18.55;100.00
28167;BME280;15455;53.376;-6.262;2023-08-20T09:31:38;101409.75;;;18.58;100.00
28167;BME280;15455;53.376;-6.262;2023-08-20T09:34:24;101401.69;;;18.63;100.00
28167;BME280;15455;53.376;-6.262;2023-08-20T09:37:14;101409.59;;;18.66;100.00
28167;BME280;15455;53.376;-6.262;2023-08-20T09:40:00;101404.34;;;18.65;100.00
28167;BME280;15455;53.376;-6.262;2023-08-20T09:42:46;101391.06;;;18.66;100.00
28167;BME280;15455;53.376;-6.262;2023-08-20T09:45:32;101392.75;;;18.69;100.00
28167;BME280;15455;53.376;-6.262;2023-08-20T09:48:19;101377.81;;;18.68;100.00
28167;BME280;15455;53.376;-6.262;2023-08-20T09:51:10;101386.38;;;18.76;100.00
28167;BME280;15455;53.376;-6.262;2023-08-20T09:54:07;101384.31;;;18.89;100.00
28167;BME280;15455;53.376;-6.262;2023-08-20T09:57:00;101383.25;;;18.96;100.00
28167;BME280;15455;53.376;-6.262;2023-08-20T09:59:47;101391.75;;;19.07;100.00
28167;BME280;15455;53.376;-6.262;2023-08-20T10:02:34;101390.63;;;19.16;100.00
28167;BME280;15455;53.376;-6.262;2023-08-20T10:05:22;101386.91;;;19.23;100.00
28167;BME280;15455;53.376;-6.262;2023-08-20T10:08:08;101392.91;;;19.30;100.00
28167;BME280;15455;53.376;-6.262;2023-08-20T10:10:54;101372.69;;;19.27;100.00
28167;BME280;15455;53.376;-6.262;2023-08-20T10:13:40;101389.34;;;19.31;100.00
28167;BME280;15455;53.376;-6.262;2023-08-20T10:16:27;101386.56;;;19.36;100.00
28167;BME280;15455;53.376;-6.262;2023-08-20T10:19:15;101391.66;;;19.42;100.00
28167;BME280;15455;53.376;-6.262;2023-08-20T10:22:03;101393.97;;;19.54;100.00
28167;BME280;15455;53.376;-6.262;2023-08-20T10:24:52;101392.78;;;19.65;100.00
28167;BME280;15455;53.376;-6.262;2023-08-20T10:27:40;101391.63;;;19.73;100.00
28167;BME280;15455;53.376;-6.262;2023-08-20T10:30:29;101399.47;;;19.76;100.00
28167;BME280;15455;53.376;-6.262;2023-08-20T10:33:15;101405.88;;;19.69;100.00
28167;BME280;15455;53.376;-6.262;2023-08-20T10:36:14;101403.50;;;19.60;100.00
28167;BME280;15455;53.376;-6.262;2023-08-20T10:39:04;101411.72;;;19.51;100.00
28167;BME280;15455;53.376;-6.262;2023-08-20T10:42:08;101420.03;;;19.38;100.00
28167;BME280;15455;53.376;-6.262;2023-08-20T10:45:01;101418.56;;;19.26;100.00
28167;BME280;15455;53.376;-6.262;2023-08-20T10:47:50;101423.94;;;19.23;100.00
28167;BME280;15455;53.376;-6.262;2023-08-20T10:50:36;101411.47;;;19.29;100.00
28167;BME280;15455;53.376;-6.262;2023-08-20T10:53:22;101419.84;;;19.44;100.00
28167;BME280;15455;53.376;-6.262;2023-08-20T10:56:10;101410.84;;;19.50;100.00
28167;BME280;15455;53.376;-6.262;2023-08-20T10:59:10;101423.88;;;19.58;100.00
28167;BME280;15455;53.376;-6.262;2023-08-20T11:01:58;101421.81;;;19.68;100.00
28167;BME280;15455;53.376;-6.262;2023-08-20T11:04:45;101410.22;;;19.72;100.00
28167;BME280;15455;53.376;-6.262;2023-08-20T11:07:30;101405.53;;;19.82;100.00
28167;BME280;15455;53.376;-6.262;2023-08-20T11:10:17;101406.66;;;20.03;100.00
28167;BME280;15455;53.376;-6.262;2023-08-20T11:13:03;101408.59;;;19.98;100.00
28167;BME280;15455;53.376;-6.262;2023-08-20T11:15:51;101407.75;;;19.95;100.00
28167;BME280;15455;53.376;-6.262;2023-08-20T11:18:36;101405.06;;;19.97;100.00
28167;BME280;15455;53.376;-6.262;2023-08-20T11:21:22;101410.22;;;20.02;100.00
28167;BME280;15455;53.376;-6.262;2023-08-20T11:24:08;101402.03;;;20.09;100.00
28167;BME280;15455;53.376;-6.262;2023-08-20T11:26:54;101404.28;;;20.22;100.00
28167;BME280;15455;53.376;-6.262;2023-08-20T11:29:43;101399.50;;;20.33;100.00
28167;BME280;15455;53.376;-6.262;2023-08-20T11:32:30;101383.19;;;20.45;100.00
28167;BME280;15455;53.376;-6.262;2023-08-20T11:35:16;101393.38;;;20.58;100.00
28167;BME280;15455;53.376;-6.262;2023-08-20T11:38:05;101395.16;;;20.57;100.00
28167;BME280;15455;53.376;-6.262;2023-08-20T11:40:51;101400.53;;;20.56;100.00
28167;BME280;15455;53.376;-6.262;2023-08-20T11:43:37;101399.28;;;20.66;100.00
28167;BME280;15455;53.376;-6.262;2023-08-20T11:46:23;101403.66;;;20.69;100.00
28167;BME280;15455;53.376;-6.262;2023-08-20T11:49:10;101404.13;;;20.53;100.00
28167;BME280;15455;53.376;-6.262;2023-08-20T11:51:56;101402.88;;;20.38;100.00
28167;BME280;15455;53.376;-6.262;2023-08-20T11:54:42;101397.75;;;20.32;100.00
28167;BME280;15455;53.376;-6.262;2023-08-20T11:57:29;101401.69;;;20.20;100.00
28167;BME280;15455;53.376;-6.262;2023-08-20T12:00:27;101411.16;;;20.27;100.00
28167;BME280;15455;53.376;-6.262;2023-08-20T12:03:13;101403.09;;;20.30;100.00
28167;BME280;15455;53.376;-6.262;2023-08-20T12:05:58;101406.16;;;20.45;100.00
28167;BME280;15455;53.376;-6.262;2023-08-20T12:08:43;101398.56;;;20.61;100.00
28167;BME280;15455;53.376;-6.262;2023-08-20T12:11:30;101396.84;;;20.87;100.00
28167;BME280;15455;53.376;-6.262;2023-08-20T12:14:19;101401.25;;;21.11;100.00
28167;BME280;15455;53.376;-6.262;2023-08-20T12:17:05;101406.19;;;21.46;100.00
28167;BME280;15455;53.376;-6.262;2023-08-20T12:19:50;101403.78;;;21.63;100.00
28167;BME280;15455;53.376;-6.262;2023-08-20T12:22:36;101405.00;;;21.55;100.00
28167;BME280;15455;53.376;-6.262;2023-08-20T12:25:21;101402.34;;;21.31;100.00
28167;BME280;15455;53.376;-6.262;2023-08-20T12:28:06;101396.06;;;21.33;100.00
28167;BME280;15455;53.376;-6.262;2023-08-20T12:30:53;101397.16;;;21.28;100.00
28167;BME280;15455;53.376;-6.262;2023-08-20T12:33:39;101403.97;;;21.10;100.00
28167;BME280;15455;53.376;-6.262;2023-08-20T12:36:24;101404.25;;;21.02;100.00
28167;BME280;15455;53.376;-6.262;2023-08-20T12:39:10;101395.00;;;20.89;100.00
28167;BME280;15455;53.376;-6.262;2023-08-20T12:41:56;101404.50;;;20.96;100.00
28167;BME280;15455;53.376;-6.262;2023-08-20T12:44:41;101410.53;;;21.48;100.00
28167;BME280;15455;53.376;-6.262;2023-08-20T12:47:27;101407.81;;;21.97;100.00
28167;BME280;15455;53.376;-6.262;2023-08-20T12:50:12;101407.50;;;22.49;100.00
28167;BME280;15455;53.376;-6.262;2023-08-20T12:52:59;101398.75;;;22.88;100.00
28167;BME280;15455;53.376;-6.262;2023-08-20T12:55:45;101393.28;;;23.12;100.00
28167;BME280;15455;53.376;-6.262;2023-08-20T12:58:31;101390.09;;;23.04;100.00
28167;BME280;15455;53.376;-6.262;2023-08-20T13:01:16;101393.88;;;23.19;100.00
28167;BME280;15455;53.376;-6.262;2023-08-20T13:04:03;101382.66;;;23.31;100.00
28167;BME280;15455;53.376;-6.262;2023-08-20T13:06:49;101393.81;;;23.39;100.00
28167;BME280;15455;53.376;-6.262;2023-08-20T13:09:35;101393.28;;;23.12;100.00
28167;BME280;15455;53.376;-6.262;2023-08-20T13:12:24;101391.22;;;23.19;100.00
28167;BME280;15455;53.376;-6.262;2023-08-20T13:15:12;101398.38;;;23.37;100.00
28167;BME280;15455;53.376;-6.262;2023-08-20T13:17:58;101398.00;;;23.45;100.00
28167;BME280;15455;53.376;-6.262;2023-08-20T13:20:44;101393.81;;;23.39;100.00
28167;BME280;15455;53.376;-6.262;2023-08-20T13:23:30;101395.34;;;23.26;100.00
28167;BME280;15455;53.376;-6.262;2023-08-20T13:26:15;101397.69;;;23.13;100.00
28167;BME280;15455;53.376;-6.262;2023-08-20T13:29:01;101393.88;;;23.19;100.00
28167;BME280;15455;53.376;-6.262;2023-08-20T13:31:46;101395.56;;;23.59;100.00
28167;BME280;15455;53.376;-6.262;2023-08-20T13:34:32;101398.94;;;23.82;100.00
28167;BME280;15455;53.376;-6.262;2023-08-20T13:37:17;101395.97;;;24.07;100.00
28167;BME280;15455;53.376;-6.262;2023-08-20T13:40:03;101383.72;;;24.03;100.00
28167;BME280;15455;53.376;-6.262;2023-08-20T13:42:50;101398.25;;;24.34;100.00
28167;BME280;15455;53.376;-6.262;2023-08-20T13:45:35;101396.69;;;24.65;100.00
28167;BME280;15455;53.376;-6.262;2023-08-20T13:48:21;101395.84;;;24.82;100.00
28167;BME280;15455;53.376;-6.262;2023-08-20T13:51:06;101394.66;;;24.88;100.00
28167;BME280;15455;53.376;-6.262;2023-08-20T13:53:52;101381.84;;;24.77;100.00
28167;BME280;15455;53.376;-6.262;2023-08-20T13:56:38;101384.56;;;24.93;100.00
28167;BME280;15455;53.376;-6.262;2023-08-20T13:59:23;101388.66;;;25.00;100.00
28167;BME280;15455;53.376;-6.262;2023-08-20T14:02:09;101381.69;;;24.98;100.00
28167;BME280;15455;53.376;-6.262;2023-08-20T14:04:55;101379.25;;;24.40;100.00
28167;BME280;15455;53.376;-6.262;2023-08-20T14:07:40;101380.72;;;24.11;100.00
28167;BME280;15455;53.376;-6.262;2023-08-20T14:10:27;101370.91;;;24.29;100.00
28167;BME280;15455;53.376;-6.262;2023-08-20T14:13:13;101380.19;;;24.57;100.00
28167;BME280;15455;53.376;-6.262;2023-08-20T14:15:59;101373.06;;;24.75;100.00
28167;BME280;15455;53.376;-6.262;2023-08-20T14:18:45;101386.56;;;24.89;100.00